createdAt,value
2022-12-13T00:00:52.478Z,16.56
2022-12-13T00:01:55.597Z,16.64
2022-12-13T00:02:55.469Z,16.36
2022-12-13T00:03:52.517Z,16.13
2022-12-13T00:04:52.427Z,15.91
2022-12-13T00:05:52.408Z,15.99
2022-12-13T00:06:52.398Z,15.63
2022-12-13T00:07:52.453Z,15.34
2022-12-13T00:08:52.425Z,14.95
2022-12-13T00:09:52.358Z,14.99
2022-12-13T00:10:52.348Z,14.87
2022-12-13T00:11:52.359Z,14.90
2022-12-13T00:12:52.322Z,15.18
2022-12-13T00:13:52.308Z,14.83
2022-12-13T00:14:52.339Z,14.76
2022-12-13T00:15:52.277Z,14.55
2022-12-13T00:16:52.327Z,14.49
2022-12-13T00:17:52.318Z,14.07
2022-12-13T00:18:52.238Z,14.19
2022-12-13T00:19:52.218Z,13.95
2022-12-13T00:20:52.270Z,13.71
2022-12-13T00:21:55.200Z,13.69
2022-12-13T00:22:55.224Z,14.43
2022-12-13T00:23:52.169Z,14.27
2022-12-13T00:24:52.170Z,14.05
2022-12-13T00:25:52.149Z,13.74
2022-12-13T00:26:52.150Z,14.15
2022-12-13T00:27:52.120Z,13.92
2022-12-13T00:28:52.119Z,14.66
2022-12-13T00:29:52.107Z,14.46
2022-12-13T00:30:52.151Z,13.93
2022-12-13T00:31:59.459Z,13.16
2022-12-13T00:32:53.067Z,12.87
2022-12-13T00:33:52.058Z,13.05
2022-12-13T00:34:52.049Z,12.70
2022-12-13T00:35:52.073Z,12.43
2022-12-13T00:36:52.010Z,12.26
2022-12-13T00:37:51.990Z,12.27
2022-12-13T00:38:51.989Z,12.73
2022-12-13T00:39:52.071Z,12.89
2022-12-13T00:40:51.960Z,12.41
2022-12-13T00:41:55.010Z,11.96
2022-12-13T00:42:54.951Z,11.91
2022-12-13T00:43:51.912Z,12.46
2022-12-13T00:44:51.910Z,12.10
2022-12-13T00:45:51.917Z,11.92
2022-12-13T00:46:51.951Z,11.63
2022-12-13T00:47:51.911Z,11.86
2022-12-13T00:48:51.856Z,11.63
2022-12-13T00:49:51.841Z,11.73
2022-12-13T00:50:51.830Z,12.02
2022-12-13T00:51:51.824Z,12.11
2022-12-13T00:52:51.800Z,12.01
2022-12-13T00:53:51.819Z,12.18
2022-12-13T00:54:51.820Z,12.38
2022-12-13T00:55:51.761Z,12.45
2022-12-13T00:56:51.753Z,12.43
2022-12-13T00:57:51.728Z,12.48
2022-12-13T00:58:52.494Z,12.41
2022-12-13T00:59:51.720Z,12.06
2022-12-13T01:00:51.731Z,12.59
2022-12-13T01:01:54.740Z,13.60
2022-12-13T01:02:54.739Z,13.87
2022-12-13T01:03:51.658Z,13.70
2022-12-13T01:04:51.633Z,13.42
2022-12-13T01:06:14.167Z,13.07
2022-12-13T01:06:52.622Z,13.00
2022-12-13T01:07:51.634Z,12.88
2022-12-13T01:08:51.611Z,13.02
2022-12-13T01:09:51.579Z,13.22
2022-12-13T01:10:51.571Z,13.25
2022-12-13T01:11:51.583Z,13.38
2022-12-13T01:12:51.570Z,13.47
2022-12-13T01:13:51.524Z,13.66
2022-12-13T01:14:55.953Z,13.79
2022-12-13T01:15:51.493Z,13.99
2022-12-13T01:16:51.722Z,14.18
2022-12-13T01:17:51.502Z,14.20
2022-12-13T01:18:51.463Z,14.27
2022-12-13T01:19:51.449Z,14.76
2022-12-13T01:20:51.433Z,15.96
2022-12-13T01:21:54.442Z,16.58
2022-12-13T01:22:54.432Z,17.09
2022-12-13T01:23:51.392Z,16.40
2022-12-13T01:24:51.393Z,17.11
2022-12-13T01:25:51.432Z,16.97
2022-12-13T01:26:51.363Z,16.93
2022-12-13T01:27:52.343Z,17.24
2022-12-13T01:28:51.343Z,16.90
2022-12-13T01:29:51.314Z,16.91
2022-12-13T01:30:51.338Z,17.49
2022-12-13T01:31:51.324Z,17.66
2022-12-13T01:32:51.283Z,18.45
2022-12-13T01:33:51.267Z,18.88
2022-12-13T01:34:51.263Z,19.20
2022-12-13T01:35:51.235Z,19.39
2022-12-13T01:36:51.295Z,19.75
2022-12-13T01:37:52.215Z,20.24
2022-12-13T01:38:52.203Z,20.10
2022-12-13T01:39:52.194Z,20.39
2022-12-13T01:40:52.173Z,20.26
2022-12-13T01:41:55.194Z,20.25
2022-12-13T01:42:54.164Z,20.55
2022-12-13T01:43:51.145Z,20.05
2022-12-13T01:44:51.124Z,20.12
2022-12-13T01:45:51.143Z,21.97
2022-12-13T01:46:51.145Z,22.76
2022-12-13T01:47:51.078Z,21.68
2022-12-13T01:48:51.084Z,20.81
2022-12-13T01:49:51.056Z,20.08
2022-12-13T01:50:51.050Z,20.12
2022-12-13T01:51:51.027Z,20.09
2022-12-13T01:52:51.073Z,19.93
2022-12-13T01:53:51.017Z,18.83
2022-12-13T01:54:51.003Z,17.66
2022-12-13T01:55:50.977Z,17.00
2022-12-13T01:56:50.976Z,16.52
2022-12-13T01:57:50.947Z,16.23
2022-12-13T01:58:50.988Z,16.78
2022-12-13T01:59:50.926Z,16.37
2022-12-13T02:00:50.918Z,15.80
2022-12-13T02:01:53.897Z,15.52
2022-12-13T02:02:54.908Z,15.51
2022-12-13T02:03:50.887Z,15.37
2022-12-13T02:04:51.066Z,15.61
2022-12-13T02:05:50.856Z,15.39
2022-12-13T02:06:50.826Z,14.96
2022-12-13T02:07:50.859Z,15.85
2022-12-13T02:08:50.806Z,16.32
2022-12-13T02:09:56.377Z,15.93
2022-12-13T02:10:51.826Z,15.63
2022-12-13T02:11:50.781Z,15.82
2022-12-13T02:12:50.765Z,15.24
2022-12-13T02:13:50.738Z,14.99
2022-12-13T02:14:50.738Z,14.75
2022-12-13T02:15:50.784Z,14.65
2022-12-13T02:16:50.707Z,14.71
2022-12-13T02:17:50.702Z,14.55
2022-12-13T02:18:50.689Z,14.44
2022-12-13T02:19:50.678Z,14.51
2022-12-13T02:20:50.666Z,14.46
2022-12-13T02:21:53.678Z,14.65
2022-12-13T02:22:53.640Z,14.96
2022-12-13T02:23:50.617Z,15.01
2022-12-13T02:24:50.600Z,15.24
2022-12-13T02:25:50.599Z,15.54
2022-12-13T02:26:50.666Z,15.28
2022-12-13T02:27:50.611Z,15.75
2022-12-13T02:28:50.555Z,16.36
2022-12-13T02:29:50.569Z,16.99
2022-12-13T02:30:50.565Z,17.04
2022-12-13T02:31:50.571Z,17.10
2022-12-13T02:32:50.498Z,17.63
2022-12-13T02:33:50.505Z,17.37
2022-12-13T02:34:50.481Z,17.51
2022-12-13T02:35:53.021Z,17.08
2022-12-13T02:36:50.447Z,17.92
2022-12-13T02:37:50.499Z,17.91
2022-12-13T02:38:50.427Z,18.32
2022-12-13T02:39:50.418Z,18.57
2022-12-13T02:40:50.399Z,19.40
2022-12-13T02:41:53.393Z,19.64
2022-12-13T02:42:53.429Z,19.99
2022-12-13T02:43:50.360Z,20.44
2022-12-13T02:44:50.349Z,20.96
2022-12-13T02:45:50.348Z,21.22
2022-12-13T02:46:50.319Z,21.82
2022-12-13T02:47:50.319Z,22.10
2022-12-13T02:48:50.339Z,22.17
2022-12-13T02:49:50.289Z,22.56
2022-12-13T02:50:50.269Z,22.93
2022-12-13T02:51:50.267Z,23.42
2022-12-13T02:52:50.249Z,24.27
2022-12-13T02:53:50.239Z,24.46
2022-12-13T02:54:50.271Z,24.73
2022-12-13T02:55:50.219Z,24.91
2022-12-13T02:56:50.186Z,24.29
2022-12-13T02:57:50.200Z,24.44
2022-12-13T02:58:50.185Z,24.16
2022-12-13T02:59:52.555Z,24.66
2022-12-13T03:00:50.200Z,24.87
2022-12-13T03:01:53.209Z,25.79
2022-12-13T03:02:54.273Z,26.10
2022-12-13T03:03:50.157Z,25.54
2022-12-13T03:04:50.099Z,27.45
2022-12-13T03:05:50.101Z,30.08
2022-12-13T03:06:50.231Z,30.10
2022-12-13T03:07:50.101Z,29.23
2022-12-13T03:08:50.040Z,28.20
2022-12-13T03:09:50.023Z,27.95
2022-12-13T03:10:50.020Z,29.68
2022-12-13T03:11:50.004Z,31.38
2022-12-13T03:12:50.023Z,30.40
2022-12-13T03:13:49.991Z,29.14
2022-12-13T03:14:49.970Z,29.15
2022-12-13T03:15:50.008Z,29.65
2022-12-13T03:16:50.102Z,30.05
2022-12-13T03:17:49.932Z,31.02
2022-12-13T03:18:49.902Z,31.30
2022-12-13T03:19:49.892Z,32.70
2022-12-13T03:20:49.881Z,33.90
2022-12-13T03:21:52.912Z,35.08
2022-12-13T03:22:52.872Z,36.89
2022-12-13T03:23:50.570Z,38.12
2022-12-13T03:24:49.841Z,38.64
2022-12-13T03:25:49.831Z,40.39
2022-12-13T03:26:49.825Z,42.58
2022-12-13T03:27:49.846Z,45.16
2022-12-13T03:28:49.794Z,45.57
2022-12-13T03:29:49.782Z,45.67
2022-12-13T03:30:49.763Z,45.07
2022-12-13T03:31:49.754Z,45.95
2022-12-13T03:32:49.912Z,46.00
2022-12-13T03:33:49.725Z,46.03
2022-12-13T03:35:00.442Z,47.51
2022-12-13T03:35:50.704Z,48.80
2022-12-13T03:36:49.683Z,49.64
2022-12-13T03:37:49.676Z,50.12
2022-12-13T03:38:49.717Z,50.56
2022-12-13T03:39:49.644Z,50.78
2022-12-13T03:40:49.624Z,51.41
2022-12-13T03:41:52.624Z,52.60
2022-12-13T03:42:52.620Z,53.59
2022-12-13T03:43:49.593Z,54.05
2022-12-13T03:44:49.616Z,54.05
2022-12-13T03:45:49.586Z,55.70
2022-12-13T03:46:49.582Z,59.70
2022-12-13T03:47:49.534Z,59.70
2022-12-13T03:48:49.533Z,58.80
2022-12-13T03:49:54.028Z,59.30
2022-12-13T03:50:49.503Z,59.31
2022-12-13T03:51:49.494Z,59.48
2022-12-13T03:52:49.475Z,60.21
2022-12-13T03:53:49.464Z,61.73
2022-12-13T03:54:49.454Z,63.41
2022-12-13T03:55:49.508Z,63.55
2022-12-13T03:56:49.423Z,65.83
2022-12-13T03:57:49.414Z,68.63
2022-12-13T03:58:49.383Z,70.21
2022-12-13T03:59:49.393Z,71.29
2022-12-13T04:00:49.368Z,71.15
2022-12-13T04:01:52.436Z,72.63
2022-12-13T04:02:52.454Z,72.79
2022-12-13T04:03:49.327Z,73.54
2022-12-13T04:04:49.315Z,73.24
2022-12-13T04:05:49.304Z,73.09
2022-12-13T04:06:49.344Z,73.71
2022-12-13T04:07:49.281Z,75.14
2022-12-13T04:08:51.044Z,74.79
2022-12-13T04:09:49.276Z,74.26
2022-12-13T04:10:49.244Z,75.10
2022-12-13T04:11:49.225Z,74.84
2022-12-13T04:12:49.285Z,77.42
2022-12-13T04:13:49.205Z,74.03
2022-12-13T04:14:49.194Z,72.53
2022-12-13T04:15:49.307Z,72.01
2022-12-13T04:16:49.168Z,71.89
2022-12-13T04:17:51.225Z,70.47
2022-12-13T04:18:49.193Z,69.84
2022-12-13T04:19:49.134Z,69.71
2022-12-13T04:20:49.099Z,71.04
2022-12-13T04:21:52.097Z,70.77
2022-12-13T04:22:52.097Z,70.45
2022-12-13T04:23:49.065Z,69.76
2022-12-13T04:24:49.087Z,69.20
2022-12-13T04:25:49.046Z,69.73
2022-12-13T04:26:49.036Z,69.60
2022-12-13T04:27:49.025Z,68.83
2022-12-13T04:28:54.313Z,69.04
2022-12-13T04:29:50.037Z,69.21
2022-12-13T04:30:53.072Z,68.45
2022-12-13T04:31:50.060Z,69.17
2022-12-13T04:32:48.945Z,69.55
2022-12-13T04:33:48.936Z,70.00
2022-12-13T04:34:48.929Z,70.48
2022-12-13T04:35:48.953Z,70.89
2022-12-13T04:36:48.896Z,71.87
2022-12-13T04:37:48.886Z,71.99
2022-12-13T04:38:48.905Z,73.62
2022-12-13T04:39:48.865Z,74.78
2022-12-13T04:40:48.846Z,75.43
2022-12-13T04:41:51.866Z,77.08
2022-12-13T04:42:53.984Z,78.98
2022-12-13T04:43:48.816Z,78.97
2022-12-13T04:44:48.798Z,78.62
2022-12-13T04:45:48.827Z,79.36
2022-12-13T04:46:48.797Z,79.59
2022-12-13T04:47:48.757Z,81.46
2022-12-13T04:48:48.766Z,83.16
2022-12-13T04:49:48.737Z,85.59
2022-12-13T04:50:48.720Z,89.68
2022-12-13T04:51:48.698Z,91.10
2022-12-13T04:52:48.707Z,91.32
2022-12-13T04:53:48.708Z,87.77
2022-12-13T04:54:48.668Z,84.88
2022-12-13T04:55:49.658Z,81.36
2022-12-13T04:56:48.639Z,79.24
2022-12-13T04:57:48.627Z,76.61
2022-12-13T04:58:48.772Z,74.64
2022-12-13T04:59:48.604Z,72.08
2022-12-13T05:00:48.614Z,71.51
2022-12-13T05:01:51.669Z,71.58
2022-12-13T05:02:51.652Z,72.70
2022-12-13T05:03:48.564Z,72.96
2022-12-13T05:04:48.559Z,73.53
2022-12-13T05:05:49.523Z,73.83
2022-12-13T05:06:48.510Z,73.76
2022-12-13T05:07:48.579Z,75.99
2022-12-13T05:08:48.479Z,75.28
2022-12-13T05:09:48.502Z,76.42
2022-12-13T05:10:48.452Z,76.57
2022-12-13T05:11:48.440Z,76.27
2022-12-13T05:12:48.420Z,76.01
2022-12-13T05:13:48.420Z,76.38
2022-12-13T05:14:48.426Z,75.56
2022-12-13T05:15:53.586Z,75.23
2022-12-13T05:16:49.547Z,76.36
2022-12-13T05:17:48.401Z,76.59
2022-12-13T05:18:48.358Z,76.73
2022-12-13T05:19:48.387Z,77.11
2022-12-13T05:20:48.420Z,78.44
2022-12-13T05:21:51.370Z,79.82
2022-12-13T05:22:51.378Z,82.10
2022-12-13T05:23:48.329Z,84.31
2022-12-13T05:24:48.363Z,85.51
2022-12-13T05:25:48.317Z,86.17
2022-12-13T05:26:48.286Z,88.04
2022-12-13T05:27:48.280Z,89.83
2022-12-13T05:28:48.289Z,89.49
2022-12-13T05:29:48.244Z,88.79
2022-12-13T05:30:48.262Z,87.75
2022-12-13T05:31:48.282Z,87.52
2022-12-13T05:32:48.220Z,87.50
2022-12-13T05:33:48.262Z,88.38
2022-12-13T05:34:48.211Z,88.72
2022-12-13T05:35:48.201Z,89.90
2022-12-13T05:36:48.210Z,91.82
2022-12-13T05:37:48.150Z,91.57
2022-12-13T05:38:49.139Z,91.27
2022-12-13T05:39:48.123Z,90.52
2022-12-13T05:40:48.099Z,90.64
2022-12-13T05:41:51.091Z,91.45
2022-12-13T05:42:51.129Z,93.50
2022-12-13T05:43:48.091Z,92.35
2022-12-13T05:44:48.051Z,91.52
2022-12-13T05:45:48.048Z,90.48
2022-12-13T05:46:48.101Z,89.88
2022-12-13T05:47:48.037Z,90.05
2022-12-13T05:48:47.972Z,88.61
2022-12-13T05:49:48.020Z,87.93
2022-12-13T05:50:47.981Z,88.73
2022-12-13T05:51:48.052Z,89.38
2022-12-13T05:52:47.972Z,90.76
2022-12-13T05:53:53.133Z,92.42
2022-12-13T05:54:48.951Z,90.92
2022-12-13T05:55:47.931Z,89.76
2022-12-13T05:56:47.921Z,87.27
2022-12-13T05:57:50.281Z,84.14
2022-12-13T05:58:47.840Z,81.21
2022-12-13T05:59:48.860Z,79.40
2022-12-13T06:00:47.852Z,76.26
2022-12-13T06:01:50.862Z,73.63
2022-12-13T06:02:50.967Z,71.44
2022-12-13T06:03:47.894Z,68.91
2022-12-13T06:04:47.821Z,65.38
2022-12-13T06:05:47.792Z,62.40
2022-12-13T06:06:47.733Z,60.61
2022-12-13T06:07:49.964Z,58.16
2022-12-13T06:08:48.911Z,55.85
2022-12-13T06:09:47.732Z,54.08
2022-12-13T06:10:47.723Z,52.14
2022-12-13T06:11:47.711Z,50.27
2022-12-13T06:12:47.715Z,48.79
2022-12-13T06:13:47.653Z,46.73
2022-12-13T06:14:47.663Z,45.11
2022-12-13T06:15:47.654Z,43.59
2022-12-13T06:16:47.757Z,41.54
2022-12-13T06:17:47.631Z,39.43
2022-12-13T06:18:47.636Z,37.78
2022-12-13T06:19:47.663Z,38.07
2022-12-13T06:20:47.593Z,36.44
2022-12-13T06:21:50.623Z,35.06
2022-12-13T06:22:50.584Z,34.21
2022-12-13T06:23:47.524Z,33.34
2022-12-13T06:24:47.532Z,32.57
2022-12-13T06:25:51.637Z,30.95
2022-12-13T06:26:47.492Z,30.25
2022-12-13T06:27:47.516Z,28.80
2022-12-13T06:28:47.512Z,28.00
2022-12-13T06:29:47.487Z,26.66
2022-12-13T06:30:47.477Z,25.92
2022-12-13T06:31:47.597Z,25.05
2022-12-13T06:32:47.414Z,24.09
2022-12-13T06:33:47.423Z,24.09
2022-12-13T06:34:47.421Z,24.10
2022-12-13T06:35:47.396Z,23.77
2022-12-13T06:36:47.395Z,23.79
2022-12-13T06:37:47.454Z,23.54
2022-12-13T06:38:47.406Z,22.90
2022-12-13T06:39:47.316Z,23.17
2022-12-13T06:40:47.376Z,22.70
2022-12-13T06:41:50.354Z,22.10
2022-12-13T06:42:50.358Z,21.94
2022-12-13T06:43:47.264Z,21.52
2022-12-13T06:44:47.257Z,21.44
2022-12-13T06:45:47.349Z,21.61
2022-12-13T06:46:47.254Z,21.16
2022-12-13T06:47:47.242Z,21.97
2022-12-13T06:48:47.246Z,23.20
2022-12-13T06:49:47.351Z,22.41
2022-12-13T06:50:47.253Z,21.97
2022-12-13T06:51:47.231Z,22.01
2022-12-13T06:52:47.218Z,21.70
2022-12-13T06:53:47.235Z,20.59
2022-12-13T06:54:47.205Z,20.06
2022-12-13T06:55:47.115Z,19.46
2022-12-13T06:56:47.126Z,19.19
2022-12-13T06:57:47.126Z,18.50
2022-12-13T06:58:47.114Z,17.74
2022-12-13T06:59:47.129Z,17.52
2022-12-13T07:00:48.839Z,16.99
2022-12-13T07:01:50.720Z,16.84
2022-12-13T07:02:50.176Z,17.16
2022-12-13T07:03:47.008Z,16.82
2022-12-13T07:04:47.205Z,16.41
2022-12-13T07:05:47.027Z,16.05
2022-12-13T07:06:46.996Z,16.09
2022-12-13T07:07:46.980Z,16.05
2022-12-13T07:08:46.967Z,15.43
2022-12-13T07:09:46.948Z,15.15
2022-12-13T07:10:46.978Z,14.77
2022-12-13T07:11:51.713Z,14.94
2022-12-13T07:12:47.918Z,14.92
2022-12-13T07:13:46.897Z,14.53
2022-12-13T07:14:46.916Z,14.60
2022-12-13T07:15:46.858Z,14.52
2022-12-13T07:16:46.864Z,14.32
2022-12-13T07:17:46.887Z,14.00
2022-12-13T07:18:46.807Z,13.88
2022-12-13T07:19:47.278Z,13.74
2022-12-13T07:20:46.778Z,13.65
2022-12-13T07:21:49.759Z,13.67
2022-12-13T07:22:55.108Z,14.15
2022-12-13T07:23:47.783Z,13.70
2022-12-13T07:24:47.819Z,13.49
2022-12-13T07:25:46.764Z,13.27
2022-12-13T07:26:46.750Z,13.09
2022-12-13T07:27:46.775Z,12.96
2022-12-13T07:28:50.157Z,13.04
2022-12-13T07:29:47.713Z,12.85
2022-12-13T07:30:46.779Z,12.78
2022-12-13T07:31:46.680Z,12.65
2022-12-13T07:32:46.697Z,12.75
2022-12-13T07:33:46.691Z,12.48
2022-12-13T07:34:46.647Z,12.32
2022-12-13T07:35:46.699Z,12.41
2022-12-13T07:36:47.654Z,12.31
2022-12-13T07:37:46.628Z,12.01
2022-12-13T07:38:46.629Z,11.94
2022-12-13T07:39:46.633Z,11.80
2022-12-13T07:40:46.579Z,12.00
2022-12-13T07:41:49.709Z,11.80
2022-12-13T07:42:49.571Z,11.53
2022-12-13T07:43:46.561Z,11.39
2022-12-13T07:44:46.559Z,11.36
2022-12-13T07:45:46.573Z,11.12
2022-12-13T07:46:46.523Z,10.80
2022-12-13T07:47:46.640Z,10.63
2022-12-13T07:48:46.456Z,10.60
2022-12-13T07:49:46.460Z,10.72
2022-12-13T07:50:46.426Z,10.89
2022-12-13T07:51:47.442Z,10.56
2022-12-13T07:52:46.464Z,10.29
2022-12-13T07:53:46.452Z,9.93
2022-12-13T07:54:46.355Z,9.80
2022-12-13T07:55:46.360Z,9.56
2022-12-13T07:56:46.380Z,9.42
2022-12-13T07:57:46.341Z,9.27
2022-12-13T07:58:46.317Z,9.31
2022-12-13T07:59:46.300Z,9.26
2022-12-13T08:00:46.868Z,9.22
2022-12-13T08:01:49.317Z,8.96
2022-12-13T08:02:49.251Z,8.91
2022-12-13T08:03:46.191Z,8.70
2022-12-13T08:04:46.327Z,8.75
2022-12-13T08:05:47.236Z,8.40
2022-12-13T08:06:46.190Z,8.44
2022-12-13T08:07:46.154Z,8.24
2022-12-13T08:08:46.168Z,8.11
2022-12-13T08:09:52.472Z,8.08
2022-12-13T08:10:47.141Z,7.83
2022-12-13T08:11:46.128Z,7.81
2022-12-13T08:12:46.163Z,7.60
2022-12-13T08:13:46.091Z,7.43
2022-12-13T08:14:46.097Z,7.23
2022-12-13T08:15:47.121Z,6.90
2022-12-13T08:16:46.069Z,7.20
2022-12-13T08:17:46.013Z,6.98
2022-12-13T08:18:46.152Z,6.74
2022-12-13T08:19:46.022Z,6.80
2022-12-13T08:20:45.983Z,6.67
2022-12-13T08:21:58.261Z,6.74
2022-12-13T08:22:50.033Z,6.68
2022-12-13T08:23:45.931Z,6.68
2022-12-13T08:24:46.057Z,6.54
2022-12-13T08:25:45.932Z,6.31
2022-12-13T08:26:45.944Z,5.86
2022-12-13T08:27:45.873Z,5.55
2022-12-13T08:28:45.865Z,5.24
2022-12-13T08:29:46.015Z,5.15
2022-12-13T08:30:45.969Z,5.13
2022-12-13T08:31:45.872Z,4.86
2022-12-13T08:32:45.850Z,4.81
2022-12-13T08:33:45.824Z,4.92
2022-12-13T08:34:45.827Z,4.81
2022-12-13T08:35:45.790Z,4.59
2022-12-13T08:36:45.814Z,4.31
2022-12-13T08:37:45.773Z,4.07
2022-12-13T08:38:45.767Z,4.25
2022-12-13T08:39:45.723Z,4.31
2022-12-13T08:40:45.763Z,4.38
2022-12-13T08:41:48.706Z,4.59
2022-12-13T08:42:48.765Z,4.54
2022-12-13T08:43:45.791Z,4.21
2022-12-13T08:44:45.732Z,4.13
2022-12-13T08:45:45.658Z,3.66
2022-12-13T08:46:45.687Z,3.47
2022-12-13T08:47:45.627Z,3.11
2022-12-13T08:48:45.814Z,2.89
2022-12-13T08:49:45.603Z,2.93
2022-12-13T08:50:45.594Z,3.33
2022-12-13T08:51:45.577Z,3.15
2022-12-13T08:52:45.584Z,2.38
2022-12-13T08:53:45.584Z,2.68
2022-12-13T08:54:45.533Z,2.17
2022-12-13T08:55:48.254Z,2.16
2022-12-13T08:56:45.515Z,2.19
2022-12-13T08:57:45.475Z,2.39
2022-12-13T08:58:45.465Z,2.11
2022-12-13T08:59:45.445Z,1.94
2022-12-13T09:00:45.536Z,1.71
2022-12-13T09:01:48.440Z,2.11
2022-12-13T09:02:49.496Z,2.42
2022-12-13T09:03:45.396Z,2.21
2022-12-13T09:04:45.385Z,1.95
2022-12-13T09:05:45.366Z,1.84
2022-12-13T09:06:45.406Z,1.62
2022-12-13T09:07:45.414Z,1.32
2022-12-13T09:08:45.364Z,1.35
2022-12-13T09:09:46.338Z,1.49
2022-12-13T09:10:46.315Z,1.86
2022-12-13T09:11:45.297Z,2.10
2022-12-13T09:12:45.277Z,2.17
2022-12-13T09:13:45.299Z,2.20
2022-12-13T09:14:46.091Z,2.49
2022-12-13T09:15:46.307Z,2.97
2022-12-13T09:16:51.017Z,2.72
2022-12-13T09:17:46.312Z,3.04
2022-12-13T09:18:46.197Z,2.78
2022-12-13T09:19:46.270Z,2.39
2022-12-13T09:20:45.237Z,2.12
2022-12-13T09:21:48.168Z,1.77
2022-12-13T09:22:48.188Z,1.83
2022-12-13T09:23:46.063Z,1.53
2022-12-13T09:24:52.679Z,1.50
2022-12-13T09:25:51.454Z,2.02
2022-12-13T09:26:46.081Z,2.00
2022-12-13T09:27:45.071Z,2.08
2022-12-13T09:28:45.069Z,2.03
2022-12-13T09:29:45.047Z,1.85
2022-12-13T09:30:45.065Z,1.35
2022-12-13T09:31:51.011Z,0.91
2022-12-13T09:32:46.041Z,0.25
2022-12-13T09:33:45.020Z,-0.20
2022-12-13T09:34:46.092Z,-0.51
2022-12-13T09:35:44.969Z,-0.55
2022-12-13T09:36:44.960Z,-0.24
2022-12-13T09:37:46.232Z,0.04
2022-12-13T09:38:45.029Z,0.11
2022-12-13T09:39:44.919Z,-0.13
2022-12-13T09:40:44.912Z,0.05
2022-12-13T09:41:47.891Z,0.31
2022-12-13T09:42:47.893Z,0.17
2022-12-13T09:43:45.457Z,-0.22
2022-12-13T09:44:49.433Z,-0.57
2022-12-13T09:45:45.894Z,-0.68
2022-12-13T09:46:45.534Z,-0.73
2022-12-13T09:47:46.899Z,-0.68
2022-12-13T09:48:48.332Z,-0.80
2022-12-13T09:49:52.124Z,-1.11
2022-12-13T09:50:57.960Z,-1.16
2022-12-13T09:51:49.897Z,-1.19
2022-12-13T09:52:45.772Z,-1.13
2022-12-13T09:53:44.752Z,-1.23
2022-12-13T09:54:48.873Z,-0.62
2022-12-13T09:55:44.703Z,-1.12
2022-12-13T09:56:44.721Z,-1.31
2022-12-13T09:57:44.681Z,-1.51
2022-12-13T09:58:44.677Z,-1.59
2022-12-13T09:59:44.684Z,-1.88
2022-12-13T10:00:44.670Z,-1.85
2022-12-13T10:01:47.666Z,-1.89
2022-12-13T10:02:47.633Z,-1.54
2022-12-13T10:03:44.656Z,-1.62
2022-12-13T10:04:44.583Z,-1.35
2022-12-13T10:05:44.573Z,-1.48
2022-12-13T10:06:44.623Z,-1.83
2022-12-13T10:07:44.546Z,-1.94
2022-12-13T10:08:44.536Z,-1.06
2022-12-13T10:09:44.524Z,-1.24
2022-12-13T10:10:44.528Z,-1.21
2022-12-13T10:11:50.243Z,-1.39
2022-12-13T10:12:45.535Z,-1.44
2022-12-13T10:13:44.472Z,-0.99
2022-12-13T10:14:44.457Z,-1.01
2022-12-13T10:15:44.435Z,-1.32
2022-12-13T10:16:44.523Z,-1.87
2022-12-13T10:17:48.575Z,-2.26
2022-12-13T10:18:45.397Z,-3.17
2022-12-13T10:19:44.388Z,-3.58
2022-12-13T10:20:44.387Z,-3.43
2022-12-13T10:21:47.419Z,-3.23
2022-12-13T10:23:07.917Z,-3.42
2022-12-13T10:24:22.438Z,-3.94
2022-12-13T10:24:45.324Z,-3.84
2022-12-13T10:25:44.345Z,-4.15
2022-12-13T10:26:44.359Z,-3.79
2022-12-13T10:27:44.309Z,-3.87
2022-12-13T10:28:44.275Z,-4.71
2022-12-13T10:29:44.258Z,-5.06
2022-12-13T10:30:46.703Z,-5.26
2022-12-13T10:31:44.310Z,-5.24
2022-12-13T10:32:44.246Z,-5.04
2022-12-13T10:33:44.216Z,-5.55
2022-12-13T10:34:44.195Z,-5.79
2022-12-13T10:35:44.175Z,-5.90
2022-12-13T10:36:44.167Z,-6.25
2022-12-13T10:37:44.191Z,-6.14
2022-12-13T10:38:44.186Z,-5.93
2022-12-13T10:39:44.142Z,-5.16
2022-12-13T10:40:44.118Z,-5.23
2022-12-13T10:41:47.097Z,-5.10
2022-12-13T10:42:47.128Z,-5.07
2022-12-13T10:43:44.078Z,-4.70
2022-12-13T10:44:44.059Z,-4.94
2022-12-13T10:45:44.085Z,-5.54
2022-12-13T10:46:44.080Z,-5.83
2022-12-13T10:47:44.019Z,-5.64
2022-12-13T10:48:44.048Z,-5.19
2022-12-13T10:49:43.998Z,-4.88
2022-12-13T10:50:44.062Z,-4.81
2022-12-13T10:51:43.969Z,-4.76
2022-12-13T10:52:44.010Z,-5.09
2022-12-13T10:53:47.692Z,-5.28
2022-12-13T10:54:48.204Z,-5.43
2022-12-13T10:55:43.911Z,-5.60
2022-12-13T10:56:43.899Z,-5.38
2022-12-13T10:57:43.903Z,-5.90
2022-12-13T10:58:43.920Z,-6.38
2022-12-13T10:59:43.873Z,-6.98
2022-12-13T11:00:43.848Z,-7.38
2022-12-13T11:01:46.829Z,-7.73
2022-12-13T11:02:46.829Z,-7.96
2022-12-13T11:03:43.808Z,-7.58
2022-12-13T11:04:43.939Z,-6.73
2022-12-13T11:05:43.780Z,-7.03
2022-12-13T11:06:44.005Z,-7.02
2022-12-13T11:07:43.757Z,-6.93
2022-12-13T11:08:43.783Z,-6.65
2022-12-13T11:09:43.726Z,-7.00
2022-12-13T11:10:44.772Z,-6.89
2022-12-13T11:11:43.699Z,-6.78
2022-12-13T11:12:43.681Z,-6.27
2022-12-13T11:13:43.680Z,-6.32
2022-12-13T11:14:43.755Z,-6.34
2022-12-13T11:15:43.652Z,-6.04
2022-12-13T11:16:43.744Z,-5.94
2022-12-13T11:17:43.639Z,-6.15
2022-12-13T11:18:43.662Z,-6.22
2022-12-13T11:19:43.646Z,-6.23
2022-12-13T11:20:43.593Z,-6.39
2022-12-13T11:21:46.591Z,-6.43
2022-12-13T11:22:46.570Z,-6.81
2022-12-13T11:23:43.590Z,-7.05
2022-12-13T11:24:43.524Z,-7.30
2022-12-13T11:25:43.541Z,-7.41
2022-12-13T11:26:43.570Z,-7.60
2022-12-13T11:27:43.487Z,-7.53
2022-12-13T11:28:44.131Z,-7.67
2022-12-13T11:29:43.465Z,-7.02
2022-12-13T11:30:43.453Z,-7.13
2022-12-13T11:31:43.486Z,-7.61
2022-12-13T11:32:43.476Z,-7.74
2022-12-13T11:33:47.555Z,-7.84
2022-12-13T11:34:44.392Z,-7.77
2022-12-13T11:35:43.382Z,-7.79
2022-12-13T11:36:43.364Z,-8.22
2022-12-13T11:37:43.355Z,-8.22
2022-12-13T11:38:43.395Z,-8.71
2022-12-13T11:39:43.330Z,-8.78
2022-12-13T11:40:43.312Z,-8.66
2022-12-13T11:41:46.295Z,-8.18
2022-12-13T11:42:46.820Z,-8.16
2022-12-13T11:43:43.276Z,-8.65
2022-12-13T11:44:47.794Z,-8.46
2022-12-13T11:45:44.270Z,-7.88
2022-12-13T11:46:43.242Z,-8.53
2022-12-13T11:47:43.223Z,-8.46
2022-12-13T11:48:43.208Z,-8.46
2022-12-13T11:49:43.247Z,-8.90
2022-12-13T11:50:43.194Z,-8.95
2022-12-13T11:51:43.165Z,-9.54
2022-12-13T11:52:43.144Z,-10.11
2022-12-13T11:53:43.147Z,-9.80
2022-12-13T11:54:43.127Z,-10.26
2022-12-13T11:55:43.170Z,-10.19
2022-12-13T11:56:43.107Z,-9.88
2022-12-13T11:57:43.095Z,-9.35
2022-12-13T11:59:02.319Z,-8.85
2022-12-13T11:59:44.083Z,-9.62
2022-12-13T12:00:43.055Z,-9.44
2022-12-13T12:01:46.118Z,-9.48
2022-12-13T12:02:46.050Z,-9.61
2022-12-13T12:03:43.067Z,-10.36
2022-12-13T12:04:42.995Z,-10.67
2022-12-13T12:05:42.989Z,-10.57
2022-12-13T12:06:42.965Z,-10.90
2022-12-13T12:08:05.278Z,-11.07
2022-12-13T12:08:44.225Z,-10.92
2022-12-13T12:09:42.927Z,-9.61
2022-12-13T12:10:49.010Z,-8.53
2022-12-13T12:11:43.895Z,-7.64
2022-12-13T12:12:42.898Z,-7.92
2022-12-13T12:13:50.382Z,-8.11
2022-12-13T12:14:43.981Z,-7.74
2022-12-13T12:15:42.927Z,-7.18
2022-12-13T12:16:42.829Z,-7.37
2022-12-13T12:17:42.877Z,-7.62
2022-12-13T12:18:42.810Z,-7.21
2022-12-13T12:19:42.845Z,-7.26
2022-12-13T12:20:42.867Z,-7.46
2022-12-13T12:22:46.767Z,-6.94
2022-12-13T12:23:48.413Z,-7.24
2022-12-13T12:24:43.778Z,-7.88
2022-12-13T12:25:42.717Z,-7.77
2022-12-13T12:26:42.698Z,-8.52
2022-12-13T12:27:42.688Z,-8.39
2022-12-13T12:28:43.987Z,-8.43
2022-12-13T12:29:42.659Z,-8.60
2022-12-13T12:30:42.787Z,-8.89
2022-12-13T12:31:51.003Z,-8.51
2022-12-13T12:32:43.629Z,-7.92
2022-12-13T12:33:42.633Z,-7.86
2022-12-13T12:34:42.587Z,-7.96
2022-12-13T12:35:46.076Z,-8.58
2022-12-13T12:36:42.619Z,-8.47
2022-12-13T12:37:42.549Z,-8.59
2022-12-13T12:38:42.563Z,-8.98
2022-12-13T12:39:42.531Z,-9.00
2022-12-13T12:41:46.528Z,-8.71
2022-12-13T12:43:14.108Z,-8.40
2022-12-13T12:43:43.470Z,-8.56
2022-12-13T12:44:42.485Z,-8.76
2022-12-13T12:45:58.125Z,-8.02
2022-12-13T12:47:18.239Z,-8.42
2022-12-13T12:48:42.776Z,-8.47
2022-12-13T12:48:53.788Z,-8.51
2022-12-13T12:49:43.567Z,-8.32
2022-12-13T12:50:43.039Z,-7.61
2022-12-13T12:51:42.372Z,-7.54
2022-12-13T12:52:42.350Z,-7.67
2022-12-13T12:53:42.344Z,-7.28
2022-12-13T12:54:42.321Z,-7.25
2022-12-13T12:55:42.342Z,-7.17
2022-12-13T12:56:42.299Z,-7.61
2022-12-13T12:57:42.297Z,-7.84